createdAt,value
2019-04-19T00:00:49.861Z,15.43
2019-04-19T00:03:20.338Z,15.43
2019-04-19T00:05:50.934Z,15.42
2019-04-19T00:08:34.933Z,15.42
2019-04-19T00:10:55.519Z,15.41
2019-04-19T00:13:19.955Z,15.38
2019-04-19T00:15:49.667Z,15.37
2019-04-19T00:18:20.064Z,15.33
2019-04-19T00:21:06.930Z,15.31
2019-04-19T00:23:27.852Z,15.27
2019-04-19T00:25:49.502Z,15.24
2019-04-19T00:28:22.528Z,15.22
2019-04-19T00:30:58.102Z,15.20
2019-04-19T00:33:28.520Z,15.19
2019-04-19T00:35:49.517Z,15.15
2019-04-19T00:38:36.053Z,15.12
2019-04-19T00:41:17.855Z,15.12
2019-04-19T00:43:50.641Z,15.11
2019-04-19T00:46:31.390Z,15.07
2019-04-19T00:48:55.103Z,15.05
2019-04-19T00:51:22.312Z,14.99
2019-04-19T00:53:55.804Z,14.99
2019-04-19T00:56:17.921Z,14.91
2019-04-19T00:58:50.271Z,14.83
2019-04-19T01:01:21.128Z,14.72
2019-04-19T01:03:48.708Z,14.61
2019-04-19T01:06:18.591Z,14.55
2019-04-19T01:08:54.294Z,14.46
2019-04-19T01:11:28.609Z,14.42
2019-04-19T01:14:01.154Z,14.30
2019-04-19T01:16:28.923Z,14.30
2019-04-19T01:18:55.214Z,14.30
2019-04-19T01:21:17.379Z,14.15
2019-04-19T01:23:50.805Z,14.15
2019-04-19T01:26:17.071Z,14.19
2019-04-19T01:28:55.431Z,14.12
2019-04-19T01:31:21.268Z,13.96
2019-04-19T01:33:47.910Z,13.96
2019-04-19T01:36:18.959Z,14.01
2019-04-19T01:38:53.448Z,13.89
2019-04-19T01:41:33.639Z,13.95
2019-04-19T01:44:10.557Z,13.94
2019-04-19T01:46:43.738Z,13.95
2019-04-19T01:49:12.898Z,13.96
2019-04-19T01:51:51.763Z,13.97
2019-04-19T01:54:33.303Z,13.99
2019-04-19T01:56:54.872Z,13.97
2019-04-19T01:59:20.199Z,13.91
2019-04-19T02:01:52.766Z,13.79
2019-04-19T02:04:24.771Z,13.58
2019-04-19T02:06:51.191Z,13.39
2019-04-19T02:09:31.596Z,13.16
2019-04-19T02:12:03.645Z,13.12
2019-04-19T02:14:34.147Z,12.98
2019-04-19T02:16:59.611Z,12.81
2019-04-19T02:19:26.489Z,12.67
2019-04-19T02:21:55.220Z,12.72
2019-04-19T02:24:33.071Z,12.83
2019-04-19T02:27:02.056Z,12.90
2019-04-19T02:29:28.483Z,13.05
2019-04-19T02:32:17.541Z,13.02
2019-04-19T02:37:31.698Z,13.08
2019-04-19T02:45:00.757Z,12.77
2019-04-19T02:47:30.387Z,12.79
2019-04-19T02:52:27.418Z,12.71
2019-04-19T02:55:05.349Z,12.73
2019-04-19T03:00:12.961Z,12.70
2019-04-19T03:05:13.127Z,12.54
2019-04-19T03:07:19.665Z,12.52
2019-04-19T03:09:49.898Z,12.45
2019-04-19T03:12:36.753Z,12.40
2019-04-19T03:15:02.104Z,12.34
2019-04-19T03:17:51.866Z,12.32
2019-04-19T03:20:08.534Z,12.28
2019-04-19T03:22:38.273Z,12.27
2019-04-19T03:25:08.198Z,12.24
2019-04-19T03:27:27.615Z,12.25
2019-04-19T03:29:59.751Z,12.22
2019-04-19T03:35:03.650Z,12.11
2019-04-19T03:37:38.330Z,12.09
2019-04-19T03:40:21.713Z,12.12
2019-04-19T03:42:58.529Z,11.84
2019-04-19T03:45:28.836Z,11.82
2019-04-19T03:48:07.710Z,11.90
2019-04-19T03:50:32.398Z,11.96
2019-04-19T03:53:00.811Z,11.94
2019-04-19T03:55:28.732Z,11.78
2019-04-19T03:57:52.373Z,11.74
2019-04-19T04:00:15.270Z,11.73
2019-04-19T04:02:46.745Z,11.67
2019-04-19T04:05:17.442Z,11.69
2019-04-19T04:07:55.306Z,11.64
2019-04-19T04:10:24.937Z,11.65
2019-04-19T04:13:02.441Z,11.62
2019-04-19T04:15:45.493Z,11.44
2019-04-19T04:17:58.604Z,11.27
2019-04-19T04:20:28.401Z,11.09
2019-04-19T04:23:03.598Z,11.11
2019-04-19T04:25:32.801Z,11.05
2019-04-19T04:28:07.116Z,11.01
2019-04-19T04:30:34.545Z,11.18
2019-04-19T04:33:07.386Z,11.24
2019-04-19T04:35:45.900Z,11.19
2019-04-19T04:38:06.507Z,11.10
2019-04-19T04:40:29.577Z,10.94
2019-04-19T04:43:08.683Z,10.78
2019-04-19T04:46:03.389Z,10.74
2019-04-19T04:48:29.037Z,10.87
2019-04-19T04:51:00.517Z,10.84
2019-04-19T04:53:15.124Z,10.82
2019-04-19T04:55:54.890Z,10.80
2019-04-19T04:58:23.164Z,10.72
2019-04-19T05:00:55.068Z,10.63
2019-04-19T05:03:35.530Z,10.55
2019-04-19T05:06:07.825Z,10.61
2019-04-19T05:08:36.231Z,10.58
2019-04-19T05:11:09.545Z,10.54
2019-04-19T05:13:32.792Z,10.54
2019-04-19T05:16:06.757Z,10.55
2019-04-19T05:18:34.916Z,10.42
2019-04-19T05:21:06.535Z,10.40
2019-04-19T05:23:33.775Z,10.52
2019-04-19T05:26:12.000Z,10.65
2019-04-19T05:28:37.419Z,10.74
2019-04-19T05:30:55.758Z,10.66
2019-04-19T05:33:27.739Z,10.63
2019-04-19T05:36:08.567Z,10.64
2019-04-19T05:38:42.280Z,10.66
2019-04-19T05:41:07.030Z,10.70
2019-04-19T05:44:34.247Z,10.66
2019-04-19T05:46:39.940Z,10.78
2019-04-19T05:48:50.786Z,10.91
2019-04-19T05:51:41.408Z,10.94
2019-04-19T05:53:49.457Z,10.94
2019-04-19T05:56:14.049Z,10.93
2019-04-19T05:58:55.858Z,10.96
2019-04-19T06:01:31.690Z,11.03
2019-04-19T06:03:57.702Z,11.06
2019-04-19T06:06:39.790Z,11.06
2019-04-19T06:08:44.482Z,10.37
2019-04-19T06:11:15.288Z,11.30
2019-04-19T06:13:51.935Z,11.41
2019-04-19T06:16:30.831Z,11.50
2019-04-19T06:18:57.164Z,11.59
2019-04-19T06:21:32.752Z,11.70
2019-04-19T06:24:05.778Z,11.77
2019-04-19T06:29:27.600Z,10.84
2019-04-19T06:31:39.659Z,11.92
2019-04-19T06:34:09.144Z,11.99
2019-04-19T06:36:17.917Z,9.71
2019-04-19T06:38:48.607Z,12.14
2019-04-19T06:41:21.730Z,12.19
2019-04-19T06:44:00.317Z,12.23
2019-04-19T06:46:31.847Z,12.29
2019-04-19T06:48:55.238Z,12.35
2019-04-19T06:51:29.351Z,12.42
2019-04-19T06:53:53.944Z,12.49
2019-04-19T06:56:25.649Z,12.59
2019-04-19T06:59:00.906Z,12.65
2019-04-19T07:01:31.389Z,12.67
2019-04-19T07:03:49.502Z,12.73
2019-04-19T07:06:33.581Z,12.81
2019-04-19T07:09:12.341Z,12.87
2019-04-19T07:11:45.035Z,12.91
2019-04-19T07:13:58.463Z,12.93
2019-04-19T07:16:39.622Z,12.95
2019-04-19T07:19:09.961Z,12.97
2019-04-19T07:21:38.409Z,13.01
2019-04-19T07:24:18.370Z,13.05
2019-04-19T07:26:44.964Z,13.11
2019-04-19T07:28:51.682Z,13.16
2019-04-19T07:31:21.613Z,13.29
2019-04-19T07:34:06.587Z,13.37
2019-04-19T07:36:41.862Z,13.42
2019-04-19T07:39:09.267Z,13.48
2019-04-19T07:41:42.595Z,13.50
2019-04-19T07:44:13.563Z,13.51
2019-04-19T07:46:52.928Z,13.52
2019-04-19T07:49:02.026Z,13.49
2019-04-19T07:51:35.946Z,13.52
2019-04-19T07:54:12.691Z,13.60
2019-04-19T07:56:48.511Z,13.62
2019-04-19T07:59:35.868Z,13.76
2019-04-19T08:02:09.157Z,13.83
2019-04-19T08:04:48.723Z,14.15
2019-04-19T08:12:12.778Z,14.07
2019-04-19T08:29:25.326Z,14.59
2019-04-19T08:31:44.369Z,14.65
2019-04-19T08:34:16.944Z,15.14
2019-04-19T08:36:51.177Z,15.41
2019-04-19T08:39:32.490Z,15.60
2019-04-19T08:42:07.077Z,15.61
2019-04-19T08:44:29.219Z,15.68
2019-04-19T08:47:02.127Z,15.74
2019-04-19T08:49:44.838Z,15.95
2019-04-19T08:52:24.859Z,16.07
2019-04-19T08:55:11.274Z,16.00
2019-04-19T08:57:22.681Z,16.16
2019-04-19T09:00:12.229Z,16.03
2019-04-19T09:02:34.465Z,15.85
2019-04-19T09:05:09.083Z,15.92
2019-04-19T09:07:47.270Z,16.35
2019-04-19T09:10:24.497Z,16.43
2019-04-19T09:12:38.449Z,16.45
2019-04-19T09:15:07.057Z,16.60
2019-04-19T09:17:59.345Z,16.62
2019-04-19T09:20:25.086Z,16.74
2019-04-19T09:22:38.718Z,16.75
2019-04-19T09:25:03.253Z,16.69
2019-04-19T09:27:41.998Z,16.78
2019-04-19T09:30:13.707Z,16.88
2019-04-19T09:32:28.683Z,16.87
2019-04-19T09:35:01.506Z,16.89
2019-04-19T09:37:40.409Z,16.96
2019-04-19T09:40:02.804Z,17.19
2019-04-19T09:42:36.713Z,17.25
2019-04-19T09:44:57.315Z,17.20
2019-04-19T09:47:24.959Z,17.27
2019-04-19T09:50:06.687Z,17.32
2019-04-19T09:52:47.017Z,17.45
2019-04-19T09:55:15.972Z,17.43
2019-04-19T09:57:46.300Z,17.55
2019-04-19T10:00:02.109Z,17.66
2019-04-19T10:02:32.993Z,17.60
2019-04-19T10:04:54.872Z,17.53
2019-04-19T10:07:23.488Z,17.42
2019-04-19T10:09:56.619Z,17.36
2019-04-19T10:12:22.126Z,17.48
2019-04-19T10:14:51.464Z,17.63
2019-04-19T10:17:26.815Z,17.81
2019-04-19T10:19:55.286Z,17.80
2019-04-19T10:22:25.096Z,17.88
2019-04-19T10:24:54.418Z,18.00
2019-04-19T10:27:27.275Z,17.96
2019-04-19T10:29:55.905Z,18.01
2019-04-19T10:32:30.629Z,18.14
2019-04-19T10:35:00.698Z,18.18
2019-04-19T10:37:29.410Z,18.18
2019-04-19T10:39:59.531Z,18.29
2019-04-19T10:42:29.383Z,18.36
2019-04-19T10:44:58.260Z,18.39
2019-04-19T10:47:29.237Z,18.41
2019-04-19T10:50:12.055Z,18.57
2019-04-19T10:52:27.398Z,18.61
2019-04-19T10:54:57.116Z,18.64
2019-04-19T10:57:27.374Z,18.60
2019-04-19T10:59:58.787Z,18.65
2019-04-19T11:02:29.780Z,18.70
2019-04-19T11:04:58.781Z,18.84
2019-04-19T11:07:27.693Z,18.80
2019-04-19T11:09:57.759Z,18.77
2019-04-19T11:12:26.501Z,18.84
2019-04-19T11:14:55.135Z,18.86
2019-04-19T11:17:23.585Z,18.93
2019-04-19T11:20:07.922Z,18.93
2019-04-19T11:22:23.735Z,18.81
2019-04-19T11:24:52.316Z,18.85
2019-04-19T11:27:21.441Z,18.93
2019-04-19T11:29:52.309Z,19.02
2019-04-19T11:32:35.690Z,19.09
2019-04-19T11:35:05.756Z,19.18
2019-04-19T11:37:34.978Z,19.09
2019-04-19T11:40:05.066Z,19.21
2019-04-19T11:42:33.552Z,19.30
2019-04-19T11:45:02.090Z,19.54
2019-04-19T11:47:31.115Z,19.68
2019-04-19T11:49:59.824Z,19.70
2019-04-19T11:52:30.166Z,19.53
2019-04-19T11:55:05.760Z,19.36
2019-04-19T11:57:36.545Z,19.31
2019-04-19T12:00:11.458Z,19.37
2019-04-19T12:02:44.740Z,19.75
2019-04-19T12:05:22.126Z,19.71
2019-04-19T12:07:44.359Z,19.65
2019-04-19T12:10:14.546Z,19.71
2019-04-19T12:12:43.435Z,19.62
2019-04-19T12:15:13.701Z,19.80
2019-04-19T12:17:42.246Z,20.24
2019-04-19T12:20:11.362Z,20.62
2019-04-19T12:22:41.919Z,21.23
2019-04-19T12:25:11.918Z,21.50
2019-04-19T12:27:43.539Z,22.00
2019-04-19T12:30:13.602Z,22.21
2019-04-19T12:32:47.587Z,22.53
2019-04-19T12:35:20.586Z,22.84
2019-04-19T12:37:54.142Z,23.25
2019-04-19T12:40:23.152Z,23.80
2019-04-19T12:42:52.018Z,24.22
2019-04-19T12:45:22.033Z,24.52
2019-04-19T12:47:53.163Z,24.70
2019-04-19T12:50:21.927Z,24.96
2019-04-19T12:52:51.741Z,25.07
2019-04-19T12:55:20.342Z,25.22
2019-04-19T12:57:50.388Z,25.41
2019-04-19T13:00:21.564Z,25.40
2019-04-19T13:02:51.852Z,25.61
2019-04-19T13:05:27.859Z,25.82
2019-04-19T13:07:56.898Z,25.71
2019-04-19T13:10:25.367Z,26.06
2019-04-19T13:12:54.056Z,26.38
2019-04-19T13:15:22.447Z,26.60
2019-04-19T13:17:51.861Z,26.45
2019-04-19T13:20:27.429Z,26.45
2019-04-19T13:22:50.703Z,26.52
2019-04-19T13:25:19.918Z,26.59
2019-04-19T13:27:54.189Z,26.65
2019-04-19T13:30:29.498Z,26.67
2019-04-19T13:32:50.767Z,26.70
2019-04-19T13:35:19.379Z,26.78
2019-04-19T13:37:49.600Z,26.78
2019-04-19T13:40:24.250Z,26.74
2019-04-19T13:42:55.740Z,26.89
2019-04-19T13:45:29.280Z,26.84
2019-04-19T13:47:54.478Z,26.73
2019-04-19T13:50:30.367Z,26.92
2019-04-19T13:52:53.277Z,26.79
2019-04-19T13:55:21.749Z,26.69
2019-04-19T13:57:51.428Z,26.85
2019-04-19T14:00:24.470Z,26.95
2019-04-19T14:02:53.820Z,27.06
2019-04-19T14:05:23.271Z,27.00
2019-04-19T14:07:53.043Z,26.96
2019-04-19T14:10:21.671Z,27.07
2019-04-19T14:12:51.316Z,27.08
2019-04-19T14:15:20.448Z,27.00
2019-04-19T14:17:49.805Z,26.77
2019-04-19T14:20:27.547Z,26.81
2019-04-19T14:22:49.793Z,26.89
2019-04-19T14:25:19.439Z,26.92
2019-04-19T14:27:49.031Z,26.90
2019-04-19T14:30:19.417Z,26.82
2019-04-19T14:32:47.966Z,26.58
2019-04-19T14:35:17.438Z,26.64
2019-04-19T14:37:46.547Z,26.61
2019-04-19T14:40:17.564Z,26.40
2019-04-19T14:42:46.663Z,26.22
2019-04-19T14:45:16.471Z,25.90
2019-04-19T14:47:47.112Z,25.85
2019-04-19T14:50:16.871Z,25.98
2019-04-19T14:52:46.479Z,26.03
2019-04-19T14:55:16.107Z,25.97
2019-04-19T14:57:46.067Z,25.82
2019-04-19T15:00:18.867Z,25.71
2019-04-19T15:03:07.573Z,25.64
2019-04-19T15:05:39.554Z,25.59
2019-04-19T15:08:08.682Z,25.49
2019-04-19T15:10:37.722Z,25.42
2019-04-19T15:13:07.073Z,25.43
2019-04-19T15:15:36.064Z,25.43
2019-04-19T15:18:04.957Z,25.44
2019-04-19T15:20:34.008Z,25.42
2019-04-19T15:23:02.497Z,25.31
2019-04-19T15:25:31.892Z,25.26
2019-04-19T15:28:01.184Z,25.14
2019-04-19T15:30:30.789Z,25.05
2019-04-19T15:33:00.401Z,25.09
2019-04-19T15:35:29.750Z,25.09
2019-04-19T15:37:58.304Z,25.05
2019-04-19T15:40:28.036Z,25.05
2019-04-19T15:42:56.979Z,25.06
2019-04-19T15:45:27.152Z,24.97
2019-04-19T15:47:56.998Z,24.90
2019-04-19T15:50:27.560Z,24.82
2019-04-19T15:53:00.036Z,24.77
2019-04-19T15:55:28.704Z,24.67
2019-04-19T15:57:57.238Z,24.63
2019-04-19T16:00:36.362Z,24.71
2019-04-19T16:03:07.857Z,24.64
2019-04-19T16:05:44.341Z,24.68
2019-04-19T16:08:20.570Z,24.74
2019-04-19T16:11:06.796Z,24.83
2019-04-19T16:13:36.114Z,24.88
2019-04-19T16:16:05.909Z,24.94
2019-04-19T16:18:34.481Z,24.97
2019-04-19T16:21:03.255Z,24.97
2019-04-19T16:23:32.194Z,24.99
2019-04-19T16:26:03.833Z,25.01
2019-04-19T16:28:33.138Z,25.00
2019-04-19T16:31:02.124Z,24.97
2019-04-19T16:33:31.818Z,25.03
2019-04-19T16:36:00.771Z,25.06
2019-04-19T16:38:30.552Z,25.07
2019-04-19T16:41:00.992Z,25.06
2019-04-19T16:43:29.554Z,25.13
2019-04-19T16:46:08.023Z,25.14
2019-04-19T16:48:28.494Z,25.15
2019-04-19T16:50:58.789Z,25.12
2019-04-19T16:53:28.169Z,25.13
2019-04-19T16:55:57.419Z,25.05
2019-04-19T16:58:28.520Z,24.99
2019-04-19T17:00:57.038Z,24.94
2019-04-19T17:03:25.696Z,24.90
2019-04-19T17:05:56.535Z,24.87
2019-04-19T17:08:25.177Z,24.80
2019-04-19T17:10:53.902Z,24.76
2019-04-19T17:13:22.743Z,24.68
2019-04-19T17:15:52.938Z,24.64
2019-04-19T17:18:32.427Z,24.55
2019-04-19T17:21:03.667Z,24.52
2019-04-19T17:23:32.788Z,24.26
2019-04-19T17:26:01.358Z,24.13
2019-04-19T17:28:30.742Z,24.05
2019-04-19T17:31:00.165Z,24.04
2019-04-19T17:33:28.791Z,24.00
2019-04-19T17:35:57.687Z,23.91
2019-04-19T17:38:33.604Z,23.76
2019-04-19T17:40:56.818Z,23.57
2019-04-19T17:43:27.769Z,23.38
2019-04-19T17:45:56.850Z,23.28
2019-04-19T17:48:26.253Z,23.19
2019-04-19T17:50:55.695Z,23.11
2019-04-19T17:53:31.425Z,23.04
2019-04-19T17:55:55.477Z,22.94
2019-04-19T17:58:25.536Z,22.78
2019-04-19T18:00:54.514Z,22.58
2019-04-19T18:03:23.138Z,22.41
2019-04-19T18:05:52.016Z,22.34
2019-04-19T18:08:27.122Z,22.27
2019-04-19T18:10:54.319Z,22.20
2019-04-19T18:13:21.324Z,22.04
2019-04-19T18:15:51.123Z,21.93
2019-04-19T18:18:20.948Z,21.78
2019-04-19T18:20:53.736Z,21.74
2019-04-19T18:23:30.128Z,21.63
2019-04-19T18:25:50.845Z,21.34
2019-04-19T18:28:19.870Z,21.41
2019-04-19T18:30:53.562Z,21.38
2019-04-19T18:33:28.881Z,21.35
2019-04-19T18:36:00.080Z,21.23
2019-04-19T18:38:28.041Z,21.15
2019-04-19T18:40:57.481Z,21.08
2019-04-19T18:43:35.589Z,21.05
2019-04-19T18:45:57.034Z,20.96
2019-04-19T18:48:25.458Z,20.91
2019-04-19T18:50:54.091Z,20.81
2019-04-19T18:53:32.887Z,20.77
2019-04-19T18:55:55.136Z,20.66
2019-04-19T18:58:27.650Z,20.56
2019-04-19T19:00:55.187Z,20.48
2019-04-19T19:03:26.303Z,20.43
2019-04-19T19:05:59.555Z,20.34
2019-04-19T19:08:28.510Z,20.23
2019-04-19T19:10:56.442Z,20.12
2019-04-19T19:13:28.662Z,20.05
2019-04-19T19:15:56.637Z,19.97
2019-04-19T19:18:25.934Z,19.81
2019-04-19T19:20:59.676Z,19.80
2019-04-19T19:23:38.447Z,19.74
2019-04-19T19:26:06.362Z,19.77
2019-04-19T19:28:26.479Z,19.75
2019-04-19T19:30:56.596Z,19.63
2019-04-19T19:33:40.532Z,19.56
2019-04-19T19:36:03.328Z,19.47
2019-04-19T19:38:34.044Z,19.37
2019-04-19T19:41:54.617Z,19.27
2019-04-19T19:43:46.344Z,19.22
2019-04-19T19:49:05.686Z,19.16
2019-04-19T19:51:23.879Z,19.17
2019-04-19T19:54:29.722Z,19.14
2019-04-19T19:56:32.373Z,19.08
2019-04-19T19:58:42.344Z,19.02
2019-04-19T20:01:23.694Z,18.91
2019-04-19T20:03:44.287Z,18.85
2019-04-19T20:06:16.212Z,18.84
2019-04-19T20:08:45.602Z,18.82
2019-04-19T20:11:20.383Z,18.81
2019-04-19T20:13:46.887Z,18.78
2019-04-19T20:16:20.389Z,18.71
2019-04-19T20:18:47.757Z,18.58
2019-04-19T20:21:17.815Z,18.55
2019-04-19T20:24:03.497Z,18.57
2019-04-19T20:26:27.818Z,18.43
2019-04-19T20:28:52.239Z,18.32
2019-04-19T20:31:26.170Z,18.30
2019-04-19T20:33:55.373Z,18.24
2019-04-19T20:36:22.973Z,18.23
2019-04-19T20:38:58.396Z,18.22
2019-04-19T20:41:22.726Z,18.16
2019-04-19T20:44:03.775Z,18.11
2019-04-19T20:46:25.532Z,18.02
2019-04-19T20:48:59.454Z,18.03
2019-04-19T20:51:41.535Z,17.95
2019-04-19T20:54:33.472Z,17.92
2019-04-19T20:57:04.143Z,17.85
2019-04-19T20:59:12.636Z,17.85
2019-04-19T21:01:41.184Z,17.81
2019-04-19T21:04:13.457Z,17.79
2019-04-19T21:06:41.788Z,17.58
2019-04-19T21:09:13.793Z,17.45
2019-04-19T21:11:44.632Z,17.39
2019-04-19T21:14:11.284Z,17.14
2019-04-19T21:16:44.025Z,16.91
2019-04-19T21:19:12.446Z,16.70
2019-04-19T21:21:44.612Z,16.59
2019-04-19T21:24:12.316Z,16.53
2019-04-19T21:26:41.587Z,16.43
2019-04-19T21:29:13.903Z,16.32
2019-04-19T21:31:45.933Z,16.18
2019-04-19T21:34:12.165Z,16.12
2019-04-19T21:36:47.935Z,16.03
2019-04-19T21:39:13.792Z,15.59
2019-04-19T21:41:43.625Z,15.61
2019-04-19T21:44:16.886Z,15.72
2019-04-19T21:46:41.984Z,15.50
2019-04-19T21:49:14.530Z,15.36
2019-04-19T21:51:41.214Z,15.58
2019-04-19T21:54:10.768Z,15.78
2019-04-19T21:56:44.415Z,15.69
2019-04-19T21:59:09.495Z,15.79
2019-04-19T22:01:46.017Z,15.78
2019-04-19T22:04:13.610Z,15.75
2019-04-19T22:06:41.258Z,15.58
2019-04-19T22:09:14.748Z,15.55
2019-04-19T22:11:40.550Z,15.52
2019-04-19T22:14:15.000Z,15.49
2019-04-19T22:16:43.305Z,15.35
2019-04-19T22:19:09.724Z,15.28
2019-04-19T22:21:42.582Z,15.22
2019-04-19T22:24:08.804Z,15.19
2019-04-19T22:26:43.258Z,15.32
2019-04-19T22:29:07.648Z,15.30
2019-04-19T22:31:36.685Z,15.08
2019-04-19T22:34:06.437Z,15.01
2019-04-19T22:36:39.121Z,14.98
2019-04-19T22:39:07.701Z,14.98
2019-04-19T22:41:37.033Z,15.03
2019-04-19T22:44:06.871Z,15.24
2019-04-19T22:46:41.825Z,15.30
2019-04-19T22:49:09.755Z,15.37
2019-04-19T22:51:35.745Z,15.38
2019-04-19T22:54:04.345Z,15.09
2019-04-19T22:56:37.503Z,15.16
2019-04-19T22:59:05.546Z,15.27
2019-04-19T23:01:50.376Z,15.09
2019-04-19T23:04:21.080Z,15.19
2019-04-19T23:06:47.109Z,15.27
2019-04-19T23:09:19.422Z,15.18
2019-04-19T23:11:45.809Z,15.18
2019-04-19T23:14:21.063Z,15.14
2019-04-19T23:16:50.278Z,15.30
2019-04-19T23:19:17.053Z,15.29
2019-04-19T23:21:49.713Z,15.22
2019-04-19T23:24:16.700Z,15.22
2019-04-19T23:27:04.279Z,15.11
2019-04-19T23:29:20.588Z,15.09
2019-04-19T23:31:49.441Z,15.20
2019-04-19T23:34:16.789Z,15.10
2019-04-19T23:36:45.219Z,14.87
2019-04-19T23:39:15.359Z,15.05
2019-04-19T23:41:44.781Z,15.05
2019-04-19T23:44:18.006Z,14.92
2019-04-19T23:46:43.516Z,14.96
2019-04-19T23:49:14.621Z,14.99
2019-04-19T23:51:43.224Z,15.03
2019-04-19T23:54:16.383Z,15.01
2019-04-19T23:56:55.350Z,14.98
2019-04-19T23:59:15.499Z,15.00
